createdAt,value
2023-04-23T00:00:47.068Z,90.97
2023-04-23T00:03:21.425Z,90.94
2023-04-23T00:05:51.890Z,90.84
2023-04-23T00:08:23.822Z,92.50
2023-04-23T00:10:52.520Z,92.71
2023-04-23T00:13:28.319Z,93.34
2023-04-23T00:15:57.737Z,94.03
2023-04-23T00:18:26.051Z,94.69
2023-04-23T00:20:57.710Z,95.69
2023-04-23T00:23:25.452Z,96.03
2023-04-23T00:25:52.809Z,96.31
2023-04-23T00:28:22.078Z,95.83
2023-04-23T00:30:49.777Z,95.65
2023-04-23T00:33:17.401Z,97.12
2023-04-23T00:35:45.373Z,96.35
2023-04-23T00:38:12.771Z,96.33
2023-04-23T00:40:40.280Z,96.22
2023-04-23T00:43:08.408Z,95.43
2023-04-23T00:45:36.107Z,96.01
2023-04-23T00:48:04.064Z,95.85
2023-04-23T00:50:31.539Z,95.42
2023-04-23T00:52:59.466Z,95.14
2023-04-23T00:55:27.018Z,94.84
2023-04-23T00:57:55.206Z,96.16
2023-04-23T01:00:22.729Z,95.95
2023-04-23T01:02:50.782Z,94.56
2023-04-23T01:05:20.040Z,95.76
2023-04-23T01:07:47.845Z,96.84
2023-04-23T01:10:15.225Z,96.45
2023-04-23T01:12:43.134Z,96.73
2023-04-23T01:15:10.698Z,97.59
2023-04-23T01:17:38.505Z,97.15
2023-04-23T01:20:06.952Z,96.63
2023-04-23T01:22:36.457Z,97.34
2023-04-23T01:25:04.629Z,97.27
2023-04-23T01:27:32.653Z,97.42
2023-04-23T01:30:01.245Z,96.84
2023-04-23T01:32:28.747Z,97.45
2023-04-23T01:34:56.930Z,98.74
2023-04-23T01:37:25.157Z,97.90
2023-04-23T01:39:52.617Z,98.78
2023-04-23T01:42:20.268Z,98.47
2023-04-23T01:44:47.796Z,98.52
2023-04-23T01:47:15.472Z,98.17
2023-04-23T01:49:42.922Z,98.33
2023-04-23T01:52:10.463Z,98.54
2023-04-23T01:54:37.838Z,98.44
2023-04-23T01:57:05.218Z,99.20
2023-04-23T01:59:33.164Z,98.96
2023-04-23T02:02:00.692Z,99.59
2023-04-23T02:04:29.753Z,99.25
2023-04-23T02:06:57.232Z,98.54
2023-04-23T02:09:24.518Z,99.26
2023-04-23T02:11:51.999Z,99.59
2023-04-23T02:14:19.663Z,100.00
2023-04-23T02:16:48.093Z,100.00
2023-04-23T02:19:17.073Z,100.00
2023-04-23T02:21:44.406Z,100.00
2023-04-23T02:24:11.899Z,100.00
2023-04-23T02:26:39.258Z,100.00
2023-04-23T02:29:06.698Z,100.00
2023-04-23T02:31:34.248Z,100.00
2023-04-23T02:34:01.672Z,100.00
2023-04-23T02:36:31.279Z,100.00
2023-04-23T02:38:58.546Z,100.00
2023-04-23T02:41:26.009Z,100.00
2023-04-23T02:43:53.363Z,100.00
2023-04-23T02:46:21.170Z,100.00
2023-04-23T02:48:48.630Z,100.00
2023-04-23T02:51:16.237Z,100.00
2023-04-23T02:53:43.617Z,100.00
2023-04-23T02:56:11.091Z,100.00
2023-04-23T02:58:38.591Z,99.71
2023-04-23T03:01:06.277Z,99.82
2023-04-23T03:03:34.382Z,100.00
2023-04-23T03:06:04.901Z,100.00
2023-04-23T03:08:32.645Z,99.82
2023-04-23T03:11:00.835Z,98.63
2023-04-23T03:13:28.495Z,97.83
2023-04-23T03:15:56.355Z,97.57
2023-04-23T03:18:23.815Z,97.25
2023-04-23T03:20:53.830Z,97.47
2023-04-23T03:23:21.496Z,97.40
2023-04-23T03:25:49.371Z,97.14
2023-04-23T03:28:16.685Z,97.15
2023-04-23T03:30:44.997Z,96.79
2023-04-23T03:33:12.560Z,96.92
2023-04-23T03:35:40.449Z,96.70
2023-04-23T03:38:12.762Z,96.75
2023-04-23T03:40:41.341Z,97.47
2023-04-23T03:43:10.175Z,98.50
2023-04-23T03:45:57.942Z,99.08
2023-04-23T03:48:26.381Z,99.98
2023-04-23T03:50:53.911Z,100.00
2023-04-23T03:53:32.838Z,100.00
2023-04-23T03:56:18.832Z,100.00
2023-04-23T03:58:55.352Z,100.00
2023-04-23T04:01:23.476Z,100.00
2023-04-23T04:03:51.439Z,100.00
2023-04-23T04:06:19.015Z,100.00
2023-04-23T04:08:46.607Z,100.00
2023-04-23T04:11:13.877Z,100.00
2023-04-23T04:13:42.183Z,100.00
2023-04-23T04:16:09.914Z,100.00
2023-04-23T04:18:37.279Z,100.00
2023-04-23T04:21:04.788Z,100.00
2023-04-23T04:23:33.583Z,100.00
2023-04-23T04:26:00.936Z,100.00
2023-04-23T04:28:28.684Z,100.00
2023-04-23T04:30:57.895Z,100.00
2023-04-23T04:33:26.115Z,100.00
2023-04-23T04:35:54.873Z,100.00
2023-04-23T04:38:22.449Z,100.00
2023-04-23T04:40:50.663Z,100.00
2023-04-23T04:43:18.625Z,100.00
2023-04-23T04:45:46.071Z,100.00
2023-04-23T04:48:13.395Z,100.00
2023-04-23T04:50:40.948Z,100.00
2023-04-23T04:53:08.348Z,100.00
2023-04-23T04:55:35.701Z,100.00
2023-04-23T04:58:02.929Z,100.00
2023-04-23T05:00:30.766Z,100.00
2023-04-23T05:02:58.722Z,100.00
2023-04-23T05:05:26.953Z,100.00
2023-04-23T05:07:54.698Z,100.00
2023-04-23T05:10:22.239Z,100.00
2023-04-23T05:12:51.990Z,100.00
2023-04-23T05:15:19.593Z,100.00
2023-04-23T05:17:47.408Z,100.00
2023-04-23T05:20:15.431Z,100.00
2023-04-23T05:22:42.992Z,100.00
2023-04-23T05:25:12.043Z,100.00
2023-04-23T05:27:40.103Z,100.00
2023-04-23T05:30:09.671Z,100.00
2023-04-23T05:32:38.003Z,100.00
2023-04-23T05:35:06.219Z,100.00
2023-04-23T05:37:34.560Z,100.00
2023-04-23T05:40:02.933Z,100.00
2023-04-23T05:42:33.022Z,99.77
2023-04-23T05:45:00.410Z,100.00
2023-04-23T05:47:29.122Z,97.92
2023-04-23T05:49:59.571Z,97.79
2023-04-23T05:52:26.922Z,92.64
2023-04-23T05:54:54.788Z,90.01
2023-04-23T05:57:22.348Z,89.30
2023-04-23T05:59:49.811Z,88.19
2023-04-23T06:02:17.320Z,86.06
2023-04-23T06:04:45.070Z,86.45
2023-04-23T06:07:15.278Z,86.30
2023-04-23T06:09:42.702Z,85.99
2023-04-23T06:12:11.112Z,86.40
2023-04-23T06:14:38.609Z,85.49
2023-04-23T06:17:06.626Z,85.65
2023-04-23T06:19:34.224Z,85.06
2023-04-23T06:22:20.311Z,84.65
2023-04-23T06:24:48.008Z,86.07
2023-04-23T06:27:15.841Z,85.94
2023-04-23T06:29:48.155Z,86.79
2023-04-23T06:32:18.365Z,86.00
2023-04-23T06:35:00.242Z,86.87
2023-04-23T06:37:29.752Z,87.67
2023-04-23T06:39:58.371Z,87.10
2023-04-23T06:42:26.568Z,86.65
2023-04-23T06:45:17.131Z,85.68
2023-04-23T06:47:45.435Z,86.34
2023-04-23T06:50:13.244Z,86.67
2023-04-23T06:52:41.553Z,86.79
2023-04-23T06:55:10.135Z,87.91
2023-04-23T06:57:38.144Z,86.77
2023-04-23T07:00:09.306Z,87.43
2023-04-23T07:02:39.711Z,85.20
2023-04-23T07:05:07.829Z,85.86
2023-04-23T07:07:40.538Z,84.68
2023-04-23T07:10:08.802Z,84.10
2023-04-23T07:12:37.127Z,82.71
2023-04-23T07:15:05.172Z,83.02
2023-04-23T07:17:33.016Z,82.43
2023-04-23T07:20:00.946Z,82.88
2023-04-23T07:22:30.436Z,84.05
2023-04-23T07:24:58.557Z,82.79
2023-04-23T07:27:26.211Z,82.69
2023-04-23T07:29:53.809Z,83.13
2023-04-23T07:32:39.551Z,79.87
2023-04-23T07:35:07.588Z,79.76
2023-04-23T07:37:34.941Z,78.36
2023-04-23T07:40:02.875Z,76.69
2023-04-23T07:42:30.994Z,77.82
2023-04-23T07:44:58.428Z,75.48
2023-04-23T07:47:26.273Z,73.32
2023-04-23T07:49:53.703Z,74.53
2023-04-23T07:52:21.564Z,73.72
2023-04-23T07:54:49.632Z,75.15
2023-04-23T07:57:18.073Z,73.71
2023-04-23T07:59:49.123Z,74.30
2023-04-23T08:02:19.094Z,74.89
2023-04-23T08:04:47.992Z,73.25
2023-04-23T08:07:20.198Z,72.40
2023-04-23T08:09:54.808Z,72.65
2023-04-23T08:12:29.654Z,73.28
2023-04-23T08:14:57.265Z,73.38
2023-04-23T08:17:31.294Z,72.05
2023-04-23T08:19:58.705Z,71.85
2023-04-23T08:22:29.909Z,70.66
2023-04-23T08:24:57.990Z,70.92
2023-04-23T08:27:26.206Z,70.52
2023-04-23T08:29:57.153Z,69.76
2023-04-23T08:32:24.851Z,69.16
2023-04-23T08:34:52.888Z,68.60
2023-04-23T08:37:30.405Z,68.94
2023-04-23T08:39:59.498Z,67.47
2023-04-23T08:42:46.138Z,66.35
2023-04-23T08:45:14.530Z,66.64
2023-04-23T08:47:44.206Z,64.99
2023-04-23T08:50:13.197Z,64.02
2023-04-23T08:52:42.369Z,62.55
2023-04-23T08:55:22.929Z,61.43
2023-04-23T08:57:53.404Z,60.61
2023-04-23T09:00:23.142Z,59.19
2023-04-23T09:02:55.066Z,59.35
2023-04-23T09:05:23.910Z,59.44
2023-04-23T09:07:55.452Z,57.58
2023-04-23T09:10:32.712Z,56.69
2023-04-23T09:13:01.052Z,56.89
2023-04-23T09:15:29.213Z,56.55
2023-04-23T09:17:57.732Z,55.27
2023-04-23T09:20:25.466Z,55.51
2023-04-23T09:22:53.094Z,54.59
2023-04-23T09:25:21.099Z,54.65
2023-04-23T09:27:49.544Z,53.62
2023-04-23T09:30:17.616Z,55.29
2023-04-23T09:32:46.632Z,54.69
2023-04-23T09:35:16.590Z,54.20
2023-04-23T09:37:49.178Z,53.31
2023-04-23T09:40:23.745Z,53.75
2023-04-23T09:42:56.127Z,53.53
2023-04-23T09:45:25.863Z,53.74
2023-04-23T09:47:54.805Z,52.23
2023-04-23T09:50:39.428Z,51.91
2023-04-23T09:53:08.145Z,52.25
2023-04-23T09:55:40.944Z,51.05
2023-04-23T09:58:12.947Z,51.68
2023-04-23T10:00:41.150Z,50.63
2023-04-23T10:03:10.098Z,50.42
2023-04-23T10:08:14.133Z,50.53
2023-04-23T10:11:02.356Z,51.41
2023-04-23T10:16:26.916Z,49.57
2023-04-23T10:19:02.879Z,49.72
2023-04-23T10:21:46.291Z,50.70
2023-04-23T10:24:21.414Z,49.43
2023-04-23T10:26:50.331Z,48.96
2023-04-23T10:29:19.851Z,48.49
2023-04-23T10:31:51.612Z,46.29
2023-04-23T10:34:19.724Z,46.25
2023-04-23T10:36:47.697Z,45.65
2023-04-23T10:39:24.075Z,42.98
2023-04-23T10:41:57.802Z,43.57
2023-04-23T10:44:46.982Z,45.10
2023-04-23T10:47:26.679Z,45.18
2023-04-23T10:49:54.252Z,45.65
2023-04-23T10:52:26.027Z,46.31
2023-04-23T10:55:00.012Z,46.05
2023-04-23T10:57:28.011Z,47.13
2023-04-23T10:59:59.455Z,46.90
2023-04-23T11:02:43.668Z,45.31
2023-04-23T11:05:13.021Z,44.92
2023-04-23T11:07:40.607Z,44.29
2023-04-23T11:10:17.719Z,44.61
2023-04-23T11:12:46.229Z,44.09
2023-04-23T11:15:15.566Z,43.68
2023-04-23T11:17:48.604Z,43.87
2023-04-23T11:20:17.130Z,43.64
2023-04-23T11:22:52.147Z,43.87
2023-04-23T11:25:25.182Z,43.09
2023-04-23T11:27:53.874Z,41.86
2023-04-23T11:30:26.053Z,41.76
2023-04-23T11:32:57.607Z,41.97
2023-04-23T11:35:30.728Z,41.26
2023-04-23T11:37:58.674Z,42.42
2023-04-23T11:40:28.210Z,42.21
2023-04-23T11:42:56.240Z,42.38
2023-04-23T11:45:25.220Z,41.71
2023-04-23T11:47:59.216Z,41.03
2023-04-23T11:50:33.376Z,40.18
2023-04-23T11:53:09.329Z,41.38
2023-04-23T11:55:47.116Z,40.30
2023-04-23T11:59:01.813Z,40.80
2023-04-23T12:05:19.691Z,41.79
2023-04-23T12:08:21.494Z,42.57
2023-04-23T12:10:58.422Z,41.47
2023-04-23T12:16:15.513Z,39.97
2023-04-23T12:18:47.239Z,38.84
2023-04-23T12:24:03.731Z,41.30
2023-04-23T12:26:31.475Z,41.65
2023-04-23T12:28:59.927Z,42.13
2023-04-23T12:31:28.747Z,42.28
2023-04-23T12:34:02.812Z,40.95
2023-04-23T12:36:31.068Z,40.29
2023-04-23T12:39:17.043Z,41.08
2023-04-23T12:41:44.339Z,40.97
2023-04-23T12:44:11.659Z,40.71
2023-04-23T12:46:39.138Z,39.41
2023-04-23T12:49:06.603Z,38.29
2023-04-23T12:51:33.874Z,37.65
2023-04-23T12:54:01.338Z,39.14
2023-04-23T12:56:28.772Z,38.60
2023-04-23T12:58:56.480Z,39.63
2023-04-23T13:01:23.875Z,39.39
2023-04-23T13:03:51.239Z,40.12
2023-04-23T13:06:18.698Z,39.25
2023-04-23T13:08:46.032Z,39.12
2023-04-23T13:11:13.447Z,40.83
2023-04-23T13:13:40.958Z,41.80
2023-04-23T13:16:08.299Z,41.43
2023-04-23T13:18:35.755Z,40.62
2023-04-23T13:21:03.154Z,39.98
2023-04-23T13:23:30.515Z,39.09
2023-04-23T13:25:57.849Z,40.25
2023-04-23T13:28:25.386Z,40.66
2023-04-23T13:30:52.756Z,40.55
2023-04-23T13:33:21.248Z,41.10
2023-04-23T13:35:48.863Z,40.89
2023-04-23T13:38:16.769Z,40.08
2023-04-23T13:40:44.048Z,39.82
2023-04-23T13:43:11.682Z,39.69
2023-04-23T13:45:38.981Z,38.22
2023-04-23T13:48:08.101Z,37.86
2023-04-23T13:50:35.841Z,38.50
2023-04-23T13:53:03.131Z,38.47
2023-04-23T13:55:30.731Z,38.67
2023-04-23T13:57:58.978Z,38.57
2023-04-23T14:00:27.331Z,39.21
2023-04-23T14:02:54.727Z,39.22
2023-04-23T14:05:22.112Z,39.52
2023-04-23T14:07:49.568Z,38.69
2023-04-23T14:10:16.898Z,40.70
2023-04-23T14:12:44.670Z,40.28
2023-04-23T14:15:12.069Z,39.54
2023-04-23T14:17:40.705Z,39.45
2023-04-23T14:20:09.309Z,39.76
2023-04-23T14:22:37.049Z,39.36
2023-04-23T14:25:08.785Z,39.35
2023-04-23T14:27:40.949Z,41.09
2023-04-23T14:30:14.305Z,39.47
2023-04-23T14:32:43.090Z,39.13
2023-04-23T14:35:10.534Z,40.15
2023-04-23T14:37:37.925Z,41.03
2023-04-23T14:40:06.218Z,41.88
2023-04-23T14:42:33.474Z,40.59
2023-04-23T14:45:02.037Z,40.43
2023-04-23T14:47:29.339Z,39.78
2023-04-23T14:49:57.680Z,39.95
2023-04-23T14:52:25.019Z,41.89
2023-04-23T14:54:54.080Z,41.49
2023-04-23T14:57:21.745Z,40.53
2023-04-23T14:59:48.989Z,40.38
2023-04-23T15:02:16.551Z,39.81
2023-04-23T15:04:43.869Z,39.76
2023-04-23T15:07:11.337Z,38.80
2023-04-23T15:09:38.723Z,39.45
2023-04-23T15:12:07.000Z,39.35
2023-04-23T15:14:37.281Z,39.81
2023-04-23T15:17:04.854Z,41.11
2023-04-23T15:19:32.932Z,40.02
2023-04-23T15:22:00.286Z,40.50
2023-04-23T15:24:27.548Z,39.94
2023-04-23T15:26:55.140Z,40.38
2023-04-23T15:29:24.522Z,40.71
2023-04-23T15:31:58.018Z,40.65
2023-04-23T15:34:25.660Z,39.69
2023-04-23T15:36:53.195Z,40.58
2023-04-23T15:39:20.527Z,40.60
2023-04-23T15:41:47.827Z,40.65
2023-04-23T15:44:15.141Z,40.46
2023-04-23T15:46:42.380Z,40.83
2023-04-23T15:49:09.793Z,41.25
2023-04-23T15:51:37.411Z,40.69
2023-04-23T15:54:08.227Z,40.98
2023-04-23T15:56:36.634Z,41.41
2023-04-23T15:59:04.059Z,41.67
2023-04-23T16:01:31.497Z,41.39
2023-04-23T16:06:29.063Z,42.61
2023-04-23T16:08:56.305Z,42.07
2023-04-23T16:11:27.550Z,42.24
2023-04-23T16:13:56.179Z,42.29
2023-04-23T16:16:23.543Z,41.45
2023-04-23T16:18:50.900Z,42.31
2023-04-23T16:21:18.171Z,43.24
2023-04-23T16:23:45.545Z,43.16
2023-04-23T16:26:12.831Z,42.44
2023-04-23T16:28:40.207Z,43.13
2023-04-23T16:31:07.581Z,42.62
2023-04-23T16:33:34.890Z,42.67
2023-04-23T16:36:02.186Z,43.76
2023-04-23T16:38:29.610Z,42.95
2023-04-23T16:40:56.907Z,43.50
2023-04-23T16:43:24.340Z,44.62
2023-04-23T16:45:51.774Z,44.02
2023-04-23T16:48:19.989Z,43.94
2023-04-23T16:50:47.211Z,44.27
2023-04-23T16:53:14.578Z,43.08
2023-04-23T16:55:41.804Z,43.77
2023-04-23T16:58:10.176Z,43.39
2023-04-23T17:00:37.638Z,43.85
2023-04-23T17:03:05.241Z,43.80
2023-04-23T17:05:34.203Z,44.54
2023-04-23T17:08:01.472Z,44.03
2023-04-23T17:10:28.682Z,45.60
2023-04-23T17:12:55.950Z,45.75
2023-04-23T17:15:23.231Z,45.05
2023-04-23T17:17:51.151Z,45.16
2023-04-23T17:20:18.501Z,47.08
2023-04-23T17:22:46.103Z,46.09
2023-04-23T17:25:13.363Z,48.22
2023-04-23T17:27:41.452Z,49.84
2023-04-23T17:30:08.974Z,51.84
2023-04-23T17:32:36.292Z,53.84
2023-04-23T17:35:10.244Z,55.00
2023-04-23T17:37:38.154Z,56.35
2023-04-23T17:40:06.039Z,56.80
2023-04-23T17:42:33.451Z,57.43
2023-04-23T17:45:01.081Z,57.95
2023-04-23T17:47:29.125Z,58.39
2023-04-23T17:49:56.547Z,58.53
2023-04-23T17:52:23.798Z,59.17
2023-04-23T17:54:51.137Z,61.04
2023-04-23T17:57:18.404Z,61.37
2023-04-23T17:59:45.819Z,59.98
2023-04-23T18:02:13.377Z,59.90
2023-04-23T18:04:40.817Z,60.77
2023-04-23T18:07:08.099Z,60.29
2023-04-23T18:09:35.794Z,60.75
2023-04-23T18:12:03.977Z,60.53
2023-04-23T18:14:31.459Z,62.33
2023-04-23T18:16:58.717Z,61.38
2023-04-23T18:19:26.003Z,61.72
2023-04-23T18:21:54.930Z,62.49
2023-04-23T18:24:25.170Z,64.79
2023-04-23T18:27:34.960Z,65.95
2023-04-23T18:30:06.149Z,65.45
2023-04-23T18:32:38.252Z,65.46
2023-04-23T18:35:08.508Z,66.15
2023-04-23T18:37:54.474Z,64.72
2023-04-23T18:40:22.792Z,64.95
2023-04-23T18:42:50.924Z,64.97
2023-04-23T18:45:19.053Z,65.28
2023-04-23T18:48:22.205Z,65.16
2023-04-23T18:50:56.533Z,65.23
2023-04-23T18:53:24.735Z,65.62
2023-04-23T18:56:03.193Z,65.97
2023-04-23T18:59:05.045Z,65.90
2023-04-23T19:01:44.016Z,66.05
2023-04-23T19:04:24.173Z,66.15
2023-04-23T19:07:47.632Z,65.64
2023-04-23T19:11:10.084Z,65.97
2023-04-23T19:16:03.015Z,65.98
2023-04-23T19:18:34.136Z,65.52
2023-04-23T19:20:59.990Z,65.63
2023-04-23T19:23:28.618Z,65.27
2023-04-23T19:33:05.117Z,65.67
2023-04-23T19:41:42.737Z,67.07
2023-04-23T19:44:52.657Z,66.70
2023-04-23T19:48:03.084Z,67.10
2023-04-23T19:50:45.132Z,67.01
2023-04-23T19:53:15.072Z,67.24
2023-04-23T19:55:59.237Z,67.48
2023-04-23T19:58:28.595Z,67.20
2023-04-23T20:05:06.301Z,67.35
2023-04-23T20:08:52.325Z,66.93
2023-04-23T20:12:10.286Z,67.70
2023-04-23T20:14:57.787Z,67.78
2023-04-23T20:17:37.700Z,69.34
2023-04-23T20:20:35.094Z,68.54
2023-04-23T20:23:20.291Z,68.19
2023-04-23T20:25:59.315Z,68.64
2023-04-23T20:28:34.480Z,68.49
2023-04-23T20:31:26.118Z,69.34
2023-04-23T20:34:23.990Z,69.71
2023-04-23T20:37:11.356Z,70.10
2023-04-23T20:40:09.018Z,68.86
2023-04-23T20:42:58.351Z,66.53
2023-04-23T20:46:01.720Z,66.45
2023-04-23T20:49:12.924Z,65.42
2023-04-23T20:51:55.666Z,66.26
2023-04-23T20:55:00.169Z,64.63
2023-04-23T20:57:50.969Z,65.31
2023-04-23T21:00:42.455Z,63.90
2023-04-23T21:03:25.685Z,62.05
2023-04-23T21:14:23.201Z,59.98
2023-04-23T21:17:02.860Z,58.98
2023-04-23T21:20:04.999Z,58.96
2023-04-23T21:23:17.430Z,60.22
2023-04-23T21:26:52.908Z,60.10
2023-04-23T21:29:27.019Z,59.24
2023-04-23T21:32:10.407Z,59.83
2023-04-23T21:35:31.326Z,59.75
2023-04-23T21:45:34.932Z,62.62
2023-04-23T21:48:29.294Z,64.00
2023-04-23T21:54:52.611Z,64.48
2023-04-23T21:57:56.398Z,64.08
2023-04-23T22:00:39.970Z,63.82
2023-04-23T22:06:35.703Z,64.87
2023-04-23T22:09:51.686Z,64.80
2023-04-23T22:15:19.532Z,65.60
2023-04-23T22:18:00.639Z,66.44
2023-04-23T22:20:31.156Z,66.66
2023-04-23T22:23:26.710Z,67.74
2023-04-23T22:26:08.058Z,67.77
2023-04-23T22:39:41.272Z,62.71
2023-04-23T22:42:16.343Z,65.69
2023-04-23T22:45:10.333Z,67.77
2023-04-23T22:48:03.552Z,68.03
2023-04-23T22:50:33.422Z,69.16
2023-04-23T22:53:06.034Z,70.66
2023-04-23T22:55:38.293Z,72.77
2023-04-23T22:58:09.010Z,72.79
2023-04-23T23:00:40.981Z,67.82
2023-04-23T23:03:16.090Z,71.44
2023-04-23T23:06:39.357Z,71.90
2023-04-23T23:13:20.276Z,69.62
2023-04-23T23:15:59.062Z,70.75
2023-04-23T23:18:39.049Z,71.56
2023-04-23T23:21:14.577Z,70.80
2023-04-23T23:23:43.044Z,71.11
2023-04-23T23:26:18.061Z,72.08
2023-04-23T23:28:52.170Z,70.53
2023-04-23T23:31:50.370Z,70.60
2023-04-23T23:34:27.605Z,68.18
2023-04-23T23:37:02.799Z,71.34
2023-04-23T23:39:32.786Z,70.56
2023-04-23T23:42:10.464Z,70.96
2023-04-23T23:44:54.871Z,71.52
2023-04-23T23:47:24.632Z,73.25
2023-04-23T23:49:56.969Z,73.94
2023-04-23T23:53:01.595Z,68.22
2023-04-23T23:55:59.306Z,70.93
2023-04-23T23:58:55.695Z,71.71
